sensor_id;sensor_type;location;lat;lon;timestamp;pressure;altitude;pressure_sealevel;temperature;humidity
60228;BME280;46091;46.512;6.626;2023-11-19T09:38:51;97341.25;;;12.09;77.10
60228;BME280;46091;46.512;6.626;2023-11-19T09:40:54;97349.09;;;12.39;76.53
60228;BME280;46091;46.512;6.626;2023-11-19T09:42:56;97337.25;;;12.63;75.96
60228;BME280;46091;46.512;6.626;2023-11-19T09:45:02;97350.03;;;12.80;75.52
60228;BME280;46091;46.512;6.626;2023-11-19T09:47:05;97356.88;;;12.96;75.27
60228;BME280;46091;46.512;6.626;2023-11-19T09:49:10;97350.00;;;13.08;74.77
60228;BME280;46091;46.512;6.626;2023-11-19T09:51:14;97343.34;;;13.19;74.41
60228;BME280;46091;46.512;6.626;2023-11-19T09:53:17;97336.88;;;13.28;74.20
60228;BME280;46091;46.512;6.626;2023-11-19T09:55:23;97330.75;;;13.34;74.06
60228;BME280;46091;46.512;6.626;2023-11-19T09:57:26;97325.69;;;13.39;73.75
60228;BME280;46091;46.512;6.626;2023-11-19T09:59:30;97321.22;;;13.47;73.73
60228;BME280;46091;46.512;6.626;2023-11-19T10:01:34;97313.69;;;13.50;73.57
60228;BME280;46091;46.512;6.626;2023-11-19T10:03:38;97324.53;;;13.55;73.21
60228;BME280;46091;46.512;6.626;2023-11-19T10:05:42;97324.75;;;13.60;73.32
60228;BME280;46091;46.512;6.626;2023-11-19T10:07:44;97323.13;;;13.66;73.22
60228;BME280;46091;46.512;6.626;2023-11-19T10:09:47;97313.72;;;13.70;73.03
60228;BME280;46091;46.512;6.626;2023-11-19T10:11:51;97311.31;;;13.75;73.04
60228;BME280;46091;46.512;6.626;2023-11-19T10:13:54;97314.16;;;13.80;72.77
60228;BME280;46091;46.512;6.626;2023-11-19T10:15:57;97317.88;;;13.86;72.67
60228;BME280;46091;46.512;6.626;2023-11-19T10:17:59;97308.88;;;13.87;72.64
60228;BME280;46091;46.512;6.626;2023-11-19T10:20:03;97323.19;;;13.92;72.54
60228;BME280;46091;46.512;6.626;2023-11-19T10:22:06;97310.53;;;13.94;72.51
60228;BME280;46091;46.512;6.626;2023-11-19T10:24:09;97320.75;;;13.97;72.27
60228;BME280;46091;46.512;6.626;2023-11-19T10:26:12;97319.53;;;14.00;72.19
60228;BME280;46091;46.512;6.626;2023-11-19T10:28:16;97323.63;;;14.03;72.30
60228;BME280;46091;46.512;6.626;2023-11-19T10:30:20;97321.78;;;14.03;71.96
60228;BME280;46091;46.512;6.626;2023-11-19T10:32:23;97326.28;;;14.03;71.98
60228;BME280;46091;46.512;6.626;2023-11-19T10:34:28;97320.75;;;14.04;71.94
60228;BME280;46091;46.512;6.626;2023-11-19T10:36:38;97325.09;;;14.05;71.84
60228;BME280;46091;46.512;6.626;2023-11-19T10:38:51;97327.75;;;14.05;71.84
60228;BME280;46091;46.512;6.626;2023-11-19T10:40:54;97317.94;;;14.06;71.99
60228;BME280;46091;46.512;6.626;2023-11-19T10:43:02;97322.84;;;14.09;71.80
60228;BME280;46091;46.512;6.626;2023-11-19T10:45:21;97325.69;;;14.07;71.69
60228;BME280;46091;46.512;6.626;2023-11-19T10:47:25;97338.78;;;14.09;71.54
60228;BME280;46091;46.512;6.626;2023-11-19T10:49:33;97350.44;;;14.08;71.63
60228;BME280;46091;46.512;6.626;2023-11-19T10:51:42;97349.84;;;14.06;71.38
60228;BME280;46091;46.512;6.626;2023-11-19T10:53:49;97344.50;;;14.06;71.43
60228;BME280;46091;46.512;6.626;2023-11-19T10:55:56;97346.53;;;14.04;71.23
60228;BME280;46091;46.512;6.626;2023-11-19T10:58:02;97341.66;;;14.07;71.18
60228;BME280;46091;46.512;6.626;2023-11-19T11:00:09;97329.78;;;14.10;71.25
60228;BME280;46091;46.512;6.626;2023-11-19T11:02:16;97319.16;;;14.10;71.16
60228;BME280;46091;46.512;6.626;2023-11-19T11:04:24;97322.00;;;14.15;71.09
60228;BME280;46091;46.512;6.626;2023-11-19T11:06:27;97323.66;;;14.16;71.30
60228;BME280;46091;46.512;6.626;2023-11-19T11:08:31;97321.63;;;14.18;71.20
60228;BME280;46091;46.512;6.626;2023-11-19T11:10:38;97317.13;;;14.18;71.26
60228;BME280;46091;46.512;6.626;2023-11-19T11:12:59;97321.63;;;14.18;71.08
60228;BME280;46091;46.512;6.626;2023-11-19T11:15:04;97313.03;;;14.16;70.96
60228;BME280;46091;46.512;6.626;2023-11-19T11:17:12;97318.16;;;14.17;70.86
60228;BME280;46091;46.512;6.626;2023-11-19T11:19:19;97304.03;;;14.17;71.05
60228;BME280;46091;46.512;6.626;2023-11-19T11:21:24;97299.13;;;14.20;71.04
60228;BME280;46091;46.512;6.626;2023-11-19T11:23:59;97290.94;;;14.22;71.05
60228;BME280;46091;46.512;6.626;2023-11-19T11:26:29;97292.56;;;14.23;70.82
60228;BME280;46091;46.512;6.626;2023-11-19T11:28:39;97292.56;;;14.23;70.87
60228;BME280;46091;46.512;6.626;2023-11-19T11:30:54;97296.88;;;14.24;70.94
60228;BME280;46091;46.512;6.626;2023-11-19T11:33:20;97288.88;;;14.24;70.67
60228;BME280;46091;46.512;6.626;2023-11-19T11:35:36;97291.16;;;14.27;70.72
60228;BME280;46091;46.512;6.626;2023-11-19T11:37:45;97295.44;;;14.28;70.70
60228;BME280;46091;46.512;6.626;2023-11-19T11:39:49;97290.75;;;14.30;70.49
60228;BME280;46091;46.512;6.626;2023-11-19T11:44:59;97283.97;;;14.34;70.62
60228;BME280;46091;46.512;6.626;2023-11-19T11:47:06;97289.69;;;14.38;70.40
60228;BME280;46091;46.512;6.626;2023-11-19T11:49:11;97291.38;;;14.39;70.32
60228;BME280;46091;46.512;6.626;2023-11-19T11:51:14;97292.19;;;14.39;70.34
60228;BME280;46091;46.512;6.626;2023-11-19T11:53:18;97294.84;;;14.39;70.30
60228;BME280;46091;46.512;6.626;2023-11-19T11:55:23;97295.84;;;14.38;70.18
60228;BME280;46091;46.512;6.626;2023-11-19T11:57:36;97298.09;;;14.41;69.94
60228;BME280;46091;46.512;6.626;2023-11-19T11:59:46;97288.69;;;14.39;70.16
60228;BME280;46091;46.512;6.626;2023-11-19T12:01:57;97278.66;;;14.41;70.20
60228;BME280;46091;46.512;6.626;2023-11-19T12:04:01;97281.13;;;14.42;70.15
60228;BME280;46091;46.512;6.626;2023-11-19T12:06:06;97275.81;;;14.42;70.08
60228;BME280;46091;46.512;6.626;2023-11-19T12:08:11;97272.94;;;14.44;69.82
60228;BME280;46091;46.512;6.626;2023-11-19T12:10:13;97276.63;;;14.43;69.78
60228;BME280;46091;46.512;6.626;2023-11-19T12:12:26;97281.94;;;14.43;69.96
60228;BME280;46091;46.512;6.626;2023-11-19T12:15:00;97284.59;;;14.43;70.00
60228;BME280;46091;46.512;6.626;2023-11-19T12:17:03;97277.25;;;14.45;69.95
60228;BME280;46091;46.512;6.626;2023-11-19T12:19:06;97279.09;;;14.44;70.04
60228;BME280;46091;46.512;6.626;2023-11-19T12:21:27;97281.56;;;14.46;70.10
60228;BME280;46091;46.512;6.626;2023-11-19T12:23:31;97286.06;;;14.45;69.95
60228;BME280;46091;46.512;6.626;2023-11-19T12:25:34;97284.00;;;14.47;69.89
60228;BME280;46091;46.512;6.626;2023-11-19T12:27:39;97284.00;;;14.47;69.95
60228;BME280;46091;46.512;6.626;2023-11-19T12:29:42;97281.13;;;14.49;70.00
60228;BME280;46091;46.512;6.626;2023-11-19T12:31:53;97284.44;;;14.51;69.78
60228;BME280;46091;46.512;6.626;2023-11-19T12:33:56;97282.59;;;14.51;69.91
60228;BME280;46091;46.512;6.626;2023-11-19T12:35:58;97283.63;;;14.50;69.91
60228;BME280;46091;46.512;6.626;2023-11-19T12:38:08;97281.13;;;14.49;70.05
60228;BME280;46091;46.512;6.626;2023-11-19T12:40:13;97284.81;;;14.48;69.86
60228;BME280;46091;46.512;6.626;2023-11-19T12:42:15;97277.03;;;14.46;70.18
60228;BME280;46091;46.512;6.626;2023-11-19T12:44:18;97279.72;;;14.46;70.09
60228;BME280;46091;46.512;6.626;2023-11-19T12:46:22;97276.22;;;14.46;70.05
60228;BME280;46091;46.512;6.626;2023-11-19T12:48:26;97278.06;;;14.45;70.15
60228;BME280;46091;46.512;6.626;2023-11-19T12:50:29;97266.41;;;14.46;70.09
60228;BME280;46091;46.512;6.626;2023-11-19T12:52:31;97261.91;;;14.47;69.96
60228;BME280;46091;46.512;6.626;2023-11-19T12:54:36;97252.91;;;14.48;69.96
60228;BME280;46091;46.512;6.626;2023-11-19T12:56:38;97256.38;;;14.48;69.84
60228;BME280;46091;46.512;6.626;2023-11-19T12:58:43;97263.53;;;14.48;69.92
60228;BME280;46091;46.512;6.626;2023-11-19T13:00:47;97259.03;;;14.48;69.80
60228;BME280;46091;46.512;6.626;2023-11-19T13:02:50;97260.66;;;14.49;69.99
60228;BME280;46091;46.512;6.626;2023-11-19T13:04:53;97253.53;;;14.50;69.81
60228;BME280;46091;46.512;6.626;2023-11-19T13:06:56;97249.03;;;14.50;69.72
60228;BME280;46091;46.512;6.626;2023-11-19T13:09:01;97235.91;;;14.49;69.91
60228;BME280;46091;46.512;6.626;2023-11-19T13:11:07;97235.09;;;14.48;70.01
60228;BME280;46091;46.512;6.626;2023-11-19T13:13:09;97241.66;;;14.46;69.88
60228;BME280;46091;46.512;6.626;2023-11-19T13:15:23;97241.00;;;14.44;70.13
60228;BME280;46091;46.512;6.626;2023-11-19T13:17:26;97248.59;;;14.47;70.28
60228;BME280;46091;46.512;6.626;2023-11-19T13:19:29;97241.44;;;14.47;70.18
60228;BME280;46091;46.512;6.626;2023-11-19T13:21:32;97252.06;;;14.47;69.97
60228;BME280;46091;46.512;6.626;2023-11-19T13:23:35;97249.41;;;14.47;70.38
60228;BME280;46091;46.512;6.626;2023-11-19T13:25:37;97252.06;;;14.47;70.37
60228;BME280;46091;46.512;6.626;2023-11-19T13:27:41;97253.72;;;14.48;70.34
60228;BME280;46091;46.512;6.626;2023-11-19T13:29:43;97248.38;;;14.48;70.26
60228;BME280;46091;46.512;6.626;2023-11-19T13:31:46;97252.06;;;14.47;70.48
60228;BME280;46091;46.512;6.626;2023-11-19T13:33:50;97246.53;;;14.49;70.48
60228;BME280;46091;46.512;6.626;2023-11-19T13:35:53;97246.38;;;14.50;70.65
60228;BME280;46091;46.512;6.626;2023-11-19T13:37:56;97250.03;;;14.49;70.58
60228;BME280;46091;46.512;6.626;2023-11-19T13:39:59;97250.66;;;14.51;70.51
60228;BME280;46091;46.512;6.626;2023-11-19T13:42:01;97251.28;;;14.53;70.60
60228;BME280;46091;46.512;6.626;2023-11-19T13:44:09;97247.56;;;14.54;70.55
60228;BME280;46091;46.512;6.626;2023-11-19T13:46:11;97244.91;;;14.54;70.69
60228;BME280;46091;46.512;6.626;2023-11-19T13:48:14;97253.72;;;14.55;70.62
60228;BME280;46091;46.512;6.626;2023-11-19T13:50:17;97242.03;;;14.56;70.40
60228;BME280;46091;46.512;6.626;2023-11-19T13:52:20;97236.50;;;14.57;70.59
60228;BME280;46091;46.512;6.626;2023-11-19T13:54:23;97238.16;;;14.59;70.55
60228;BME280;46091;46.512;6.626;2023-11-19T13:56:26;97246.13;;;14.59;70.59
60228;BME280;46091;46.512;6.626;2023-11-19T13:58:29;97238.16;;;14.59;70.71
60228;BME280;46091;46.512;6.626;2023-11-19T14:00:33;97246.13;;;14.59;70.63
60228;BME280;46091;46.512;6.626;2023-11-19T14:02:36;97247.16;;;14.57;70.56
60228;BME280;46091;46.512;6.626;2023-11-19T14:04:39;97240.19;;;14.56;70.81
60228;BME280;46091;46.512;6.626;2023-11-19T14:06:44;97241.84;;;14.57;70.83
60228;BME280;46091;46.512;6.626;2023-11-19T14:08:47;97239.19;;;14.57;70.96
60228;BME280;46091;46.512;6.626;2023-11-19T14:10:51;97242.66;;;14.58;70.68
60228;BME280;46091;46.512;6.626;2023-11-19T14:12:56;97239.19;;;14.57;70.92
60228;BME280;46091;46.512;6.626;2023-11-19T14:15:00;97241.03;;;14.57;70.92
60228;BME280;46091;46.512;6.626;2023-11-19T14:17:04;97244.50;;;14.57;70.96
60228;BME280;46091;46.512;6.626;2023-11-19T14:19:10;97237.53;;;14.56;70.93
60228;BME280;46091;46.512;6.626;2023-11-19T14:21:13;97224.25;;;14.56;70.91
60228;BME280;46091;46.512;6.626;2023-11-19T14:23:15;97218.09;;;14.56;71.09
60228;BME280;46091;46.512;6.626;2023-11-19T14:25:18;97218.91;;;14.56;71.06
60228;BME280;46091;46.512;6.626;2023-11-19T14:27:22;97211.75;;;14.57;70.94
60228;BME280;46091;46.512;6.626;2023-11-19T14:29:25;97220.56;;;14.57;71.02
60228;BME280;46091;46.512;6.626;2023-11-19T14:31:28;97225.66;;;14.59;71.17
60228;BME280;46091;46.512;6.626;2023-11-19T14:33:33;97219.53;;;14.59;70.94
60228;BME280;46091;46.512;6.626;2023-11-19T14:35:37;97213.59;;;14.56;70.97
60228;BME280;46091;46.512;6.626;2023-11-19T14:37:39;97209.09;;;14.57;71.11
60228;BME280;46091;46.512;6.626;2023-11-19T14:39:42;97209.09;;;14.57;71.04
60228;BME280;46091;46.512;6.626;2023-11-19T14:41:47;97201.94;;;14.57;70.96
60228;BME280;46091;46.512;6.626;2023-11-19T14:43:50;97203.78;;;14.57;71.08
60228;BME280;46091;46.512;6.626;2023-11-19T14:45:53;97214.63;;;14.55;71.20
60228;BME280;46091;46.512;6.626;2023-11-19T14:47:58;97213.59;;;14.56;71.15
60228;BME280;46091;46.512;6.626;2023-11-19T14:50:04;97210.94;;;14.56;70.99
60228;BME280;46091;46.512;6.626;2023-11-19T14:52:08;97221.56;;;14.56;71.25
60228;BME280;46091;46.512;6.626;2023-11-19T14:54:14;97222.59;;;14.55;70.98
60228;BME280;46091;46.512;6.626;2023-11-19T14:56:17;97218.31;;;14.54;70.89
60228;BME280;46091;46.512;6.626;2023-11-19T14:58:20;97207.47;;;14.56;70.89
60228;BME280;46091;46.512;6.626;2023-11-19T15:00:23;97208.28;;;14.56;71.01
60228;BME280;46091;46.512;6.626;2023-11-19T15:02:27;97213.59;;;14.56;71.10
60228;BME280;46091;46.512;6.626;2023-11-19T15:04:30;97212.78;;;14.56;70.95
60228;BME280;46091;46.512;6.626;2023-11-19T15:06:34;97206.66;;;14.55;70.86
60228;BME280;46091;46.512;6.626;2023-11-19T15:08:37;97206.66;;;14.55;70.92
60228;BME280;46091;46.512;6.626;2023-11-19T15:10:41;97202.13;;;14.56;71.09
60228;BME280;46091;46.512;6.626;2023-11-19T15:12:44;97196.59;;;14.57;71.06
60228;BME280;46091;46.512;6.626;2023-11-19T15:14:47;97196.59;;;14.57;71.05
60228;BME280;46091;46.512;6.626;2023-11-19T15:16:50;97204.38;;;14.59;71.06
60228;BME280;46091;46.512;6.626;2023-11-19T15:18:53;97209.91;;;14.57;70.93
60228;BME280;46091;46.512;6.626;2023-11-19T15:20:56;97216.88;;;14.59;71.12
60228;BME280;46091;46.512;6.626;2023-11-19T15:23:00;97214.41;;;14.57;70.99
60228;BME280;46091;46.512;6.626;2023-11-19T15:25:03;97209.31;;;14.55;70.92
60228;BME280;46091;46.512;6.626;2023-11-19T15:27:09;97220.56;;;14.57;71.05
60228;BME280;46091;46.512;6.626;2023-11-19T15:29:16;97221.38;;;14.58;71.08
60228;BME280;46091;46.512;6.626;2023-11-19T15:31:19;97225.66;;;14.59;71.16
60228;BME280;46091;46.512;6.626;2023-11-19T15:33:22;97217.88;;;14.57;70.99
60228;BME280;46091;46.512;6.626;2023-11-19T15:35:25;97214.19;;;14.59;70.99
60228;BME280;46091;46.512;6.626;2023-11-19T15:37:28;97216.88;;;14.59;71.16
60228;BME280;46091;46.512;6.626;2023-11-19T15:39:33;97210.72;;;14.58;71.19
60228;BME280;46091;46.512;6.626;2023-11-19T15:41:37;97207.84;;;14.60;71.16
60228;BME280;46091;46.512;6.626;2023-11-19T15:43:40;97206.00;;;14.60;71.01
60228;BME280;46091;46.512;6.626;2023-11-19T15:45:43;97204.38;;;14.59;71.17
60228;BME280;46091;46.512;6.626;2023-11-19T15:47:46;97206.22;;;14.59;71.04
60228;BME280;46091;46.512;6.626;2023-11-19T15:49:48;97207.25;;;14.57;71.18
60228;BME280;46091;46.512;6.626;2023-11-19T15:51:51;97204.81;;;14.56;71.21
60228;BME280;46091;46.512;6.626;2023-11-19T15:53:55;97199.69;;;14.54;71.11
60228;BME280;46091;46.512;6.626;2023-11-19T15:55:59;97207.06;;;14.52;71.15
60228;BME280;46091;46.512;6.626;2023-11-19T15:58:01;97208.91;;;14.52;71.42
60228;BME280;46091;46.512;6.626;2023-11-19T16:00:05;97211.56;;;14.52;71.22
60228;BME280;46091;46.512;6.626;2023-11-19T16:02:12;97218.53;;;14.53;71.50
60228;BME280;46091;46.512;6.626;2023-11-19T16:04:15;97213.41;;;14.51;71.60
60228;BME280;46091;46.512;6.626;2023-11-19T16:06:18;97215.25;;;14.51;71.42
60228;BME280;46091;46.512;6.626;2023-11-19T16:08:21;97221.59;;;14.50;71.63
60228;BME280;46091;46.512;6.626;2023-11-19T16:10:24;97224.44;;;14.48;71.60
60228;BME280;46091;46.512;6.626;2023-11-19T16:12:28;97219.75;;;14.50;71.72
60228;BME280;46091;46.512;6.626;2023-11-19T16:14:31;97225.09;;;14.50;71.73
60228;BME280;46091;46.512;6.626;2023-11-19T16:16:34;97224.06;;;14.51;71.45
60228;BME280;46091;46.512;6.626;2023-11-19T16:18:37;97229.97;;;14.53;71.62
60228;BME280;46091;46.512;6.626;2023-11-19T16:20:39;97235.50;;;14.52;71.62
60228;BME280;46091;46.512;6.626;2023-11-19T16:22:44;97239.00;;;14.52;71.80
60228;BME280;46091;46.512;6.626;2023-11-19T16:24:46;97242.69;;;14.51;71.60
60228;BME280;46091;46.512;6.626;2023-11-19T16:26:49;97244.31;;;14.52;71.66
60228;BME280;46091;46.512;6.626;2023-11-19T16:28:54;97243.72;;;14.50;71.54
60228;BME280;46091;46.512;6.626;2023-11-19T16:30:58;97235.72;;;14.50;71.81
60228;BME280;46091;46.512;6.626;2023-11-19T16:33:01;97244.72;;;14.49;71.77
60228;BME280;46091;46.512;6.626;2023-11-19T16:35:06;97249.22;;;14.49;71.79
60228;BME280;46091;46.512;6.626;2023-11-19T16:37:11;97252.06;;;14.47;71.83
60228;BME280;46091;46.512;6.626;2023-11-19T16:39:14;97246.75;;;14.47;71.97
60228;BME280;46091;46.512;6.626;2023-11-19T16:41:21;97248.38;;;14.48;71.83
60228;BME280;46091;46.512;6.626;2023-11-19T16:43:40;97250.03;;;14.49;71.98
60228;BME280;46091;46.512;6.626;2023-11-19T16:45:45;97250.88;;;14.50;71.93
60228;BME280;46091;46.512;6.626;2023-11-19T16:47:49;97250.88;;;14.50;72.03
60228;BME280;46091;46.512;6.626;2023-11-19T16:49:52;97250.66;;;14.51;71.93
60228;BME280;46091;46.512;6.626;2023-11-19T16:51:55;97249.03;;;14.50;71.96
60228;BME280;46091;46.512;6.626;2023-11-19T16:54:02;97254.97;;;14.52;71.90
60228;BME280;46091;46.512;6.626;2023-11-19T16:56:05;97259.25;;;14.53;72.02
60228;BME280;46091;46.512;6.626;2023-11-19T16:58:09;97253.94;;;14.53;72.11
60228;BME280;46091;46.512;6.626;2023-11-19T17:00:13;97260.06;;;14.54;71.85
60228;BME280;46091;46.512;6.626;2023-11-19T17:02:17;97259.03;;;14.55;71.91
60228;BME280;46091;46.512;6.626;2023-11-19T17:04:19;97262.50;;;14.55;72.06
60228;BME280;46091;46.512;6.626;2023-11-19T17:06:22;97264.34;;;14.55;72.04
60228;BME280;46091;46.512;6.626;2023-11-19T17:08:25;97259.84;;;14.55;72.19
60228;BME280;46091;46.512;6.626;2023-11-19T17:10:28;97267.84;;;14.55;72.00
60228;BME280;46091;46.512;6.626;2023-11-19T17:12:31;97268.88;;;14.54;72.10
60228;BME280;46091;46.512;6.626;2023-11-19T17:14:33;97266.81;;;14.56;71.99
60228;BME280;46091;46.512;6.626;2023-11-19T17:16:40;97269.69;;;14.55;72.02
60228;BME280;46091;46.512;6.626;2023-11-19T17:18:45;97266.19;;;14.54;72.10
60228;BME280;46091;46.512;6.626;2023-11-19T17:20:48;97267.22;;;14.53;72.08
60228;BME280;46091;46.512;6.626;2023-11-19T17:22:51;97259.03;;;14.55;72.16
60228;BME280;46091;46.512;6.626;2023-11-19T17:24:56;97269.47;;;14.56;72.04
60228;BME280;46091;46.512;6.626;2023-11-19T17:26:57;97270.28;;;14.57;72.25
60228;BME280;46091;46.512;6.626;2023-11-19T17:29:01;97273.75;;;14.57;72.21
60228;BME280;46091;46.512;6.626;2023-11-19T17:31:06;97273.75;;;14.57;72.12
60228;BME280;46091;46.512;6.626;2023-11-19T17:33:08;97273.75;;;14.57;72.22
60228;BME280;46091;46.512;6.626;2023-11-19T17:35:13;97282.78;;;14.56;72.34
60228;BME280;46091;46.512;6.626;2023-11-19T17:37:16;97282.97;;;14.55;72.19
60228;BME280;46091;46.512;6.626;2023-11-19T17:39:20;97299.75;;;14.55;72.10
60228;BME280;46091;46.512;6.626;2023-11-19T17:41:23;97295.47;;;14.54;72.29
60228;BME280;46091;46.512;6.626;2023-11-19T17:43:26;97298.13;;;14.54;72.22
60228;BME280;46091;46.512;6.626;2023-11-19T17:45:29;97294.88;;;14.52;72.12
60228;BME280;46091;46.512;6.626;2023-11-19T17:47:32;97293.84;;;14.53;72.15
60228;BME280;46091;46.512;6.626;2023-11-19T17:49:35;97305.28;;;14.54;72.17
60228;BME280;46091;46.512;6.626;2023-11-19T17:51:42;97310.63;;;14.54;72.22
60228;BME280;46091;46.512;6.626;2023-11-19T17:53:45;97308.78;;;14.54;72.21
60228;BME280;46091;46.512;6.626;2023-11-19T17:55:48;97319.41;;;14.54;72.23
60228;BME280;46091;46.512;6.626;2023-11-19T17:57:51;97314.31;;;14.53;72.06
60228;BME280;46091;46.512;6.626;2023-11-19T17:59:54;97300.41;;;14.51;72.15
60228;BME280;46091;46.512;6.626;2023-11-19T18:01:57;97296.50;;;14.53;72.23
60228;BME280;46091;46.512;6.626;2023-11-19T18:04:01;97294.03;;;14.52;72.37
60228;BME280;46091;46.512;6.626;2023-11-19T18:06:05;97291.38;;;14.52;72.14
60228;BME280;46091;46.512;6.626;2023-11-19T18:08:09;97284.59;;;14.49;72.21
60228;BME280;46091;46.512;6.626;2023-11-19T18:10:13;97281.94;;;14.49;72.04
60228;BME280;46091;46.512;6.626;2023-11-19T18:12:16;97278.28;;;14.50;72.18
60228;BME280;46091;46.512;6.626;2023-11-19T18:14:19;97279.28;;;14.49;72.13
60228;BME280;46091;46.512;6.626;2023-11-19T18:16:21;97286.44;;;14.49;72.11
60228;BME280;46091;46.512;6.626;2023-11-19T18:18:25;97282.16;;;14.48;72.15
60228;BME280;46091;46.512;6.626;2023-11-19T18:20:28;97299.75;;;14.49;72.13
60228;BME280;46091;46.512;6.626;2023-11-19T18:22:31;97302.41;;;14.49;72.19
60228;BME280;46091;46.512;6.626;2023-11-19T18:24:34;97301.59;;;14.48;72.02
60228;BME280;46091;46.512;6.626;2023-11-19T18:26:39;97311.41;;;14.48;71.96
60228;BME280;46091;46.512;6.626;2023-11-19T18:28:44;97312.25;;;14.48;72.09
60228;BME280;46091;46.512;6.626;2023-11-19T18:30:48;97309.78;;;14.47;72.09
60228;BME280;46091;46.512;6.626;2023-11-19T18:32:51;97308.16;;;14.46;72.10
60228;BME280;46091;46.512;6.626;2023-11-19T18:34:54;97316.34;;;14.44;72.17
60228;BME280;46091;46.512;6.626;2023-11-19T18:36:57;97320.00;;;14.43;72.13
60228;BME280;46091;46.512;6.626;2023-11-19T18:39:00;97318.16;;;14.44;72.11
60228;BME280;46091;46.512;6.626;2023-11-19T18:41:05;97324.50;;;14.43;72.18
60228;BME280;46091;46.512;6.626;2023-11-19T18:43:08;97319.19;;;14.43;72.15
60228;BME280;46091;46.512;6.626;2023-11-19T18:45:11;97319.19;;;14.43;72.22
60228;BME280;46091;46.512;6.626;2023-11-19T18:47:13;97317.34;;;14.43;72.20
60228;BME280;46091;46.512;6.626;2023-11-19T18:49:16;97315.69;;;14.42;72.21
60228;BME280;46091;46.512;6.626;2023-11-19T18:51:19;97313.03;;;14.42;72.32
60228;BME280;46091;46.512;6.626;2023-11-19T18:53:21;97315.50;;;14.44;72.23
60228;BME280;46091;46.512;6.626;2023-11-19T18:55:24;97313.69;;;14.44;72.36
60228;BME280;46091;46.512;6.626;2023-11-19T18:57:28;97318.16;;;14.44;72.19
60228;BME280;46091;46.512;6.626;2023-11-19T18:59:32;97317.34;;;14.43;72.36
60228;BME280;46091;46.512;6.626;2023-11-19T19:01:35;97316.53;;;14.43;72.39
60228;BME280;46091;46.512;6.626;2023-11-19T19:03:39;97311.03;;;14.44;72.09
60228;BME280;46091;46.512;6.626;2023-11-19T19:05:43;97313.69;;;14.44;72.24
60228;BME280;46091;46.512;6.626;2023-11-19T19:07:46;97310.19;;;14.44;72.35
60228;BME280;46091;46.512;6.626;2023-11-19T19:09:49;97311.03;;;14.44;72.36
60228;BME280;46091;46.512;6.626;2023-11-19T19:11:55;97313.69;;;14.44;72.33
60228;BME280;46091;46.512;6.626;2023-11-19T19:14:00;97321.66;;;14.44;72.37
60228;BME280;46091;46.512;6.626;2023-11-19T19:16:06;97323.28;;;14.45;72.39
60228;BME280;46091;46.512;6.626;2023-11-19T19:18:09;97332.31;;;14.44;72.39
60228;BME280;46091;46.512;6.626;2023-11-19T19:20:11;97321.66;;;14.44;72.34
60228;BME280;46091;46.512;6.626;2023-11-19T19:22:14;97327.97;;;14.43;72.29
60228;BME280;46091;46.512;6.626;2023-11-19T19:24:17;97322.66;;;14.43;72.29
60228;BME280;46091;46.512;6.626;2023-11-19T19:26:19;97324.50;;;14.43;72.32
60228;BME280;46091;46.512;6.626;2023-11-19T19:28:23;97316.72;;;14.41;72.25
60228;BME280;46091;46.512;6.626;2023-11-19T19:30:27;97322.88;;;14.42;72.34
60228;BME280;46091;46.512;6.626;2023-11-19T19:32:30;97323.69;;;14.42;72.33
60228;BME280;46091;46.512;6.626;2023-11-19T19:34:33;97312.22;;;14.42;72.18
60228;BME280;46091;46.512;6.626;2023-11-19T19:36:36;97312.22;;;14.42;72.46
60228;BME280;46091;46.512;6.626;2023-11-19T19:38:39;97311.41;;;14.41;72.31
60228;BME280;46091;46.512;6.626;2023-11-19T19:40:42;97314.06;;;14.41;72.30
60228;BME280;46091;46.512;6.626;2023-11-19T19:42:45;97320.41;;;14.40;72.24
60228;BME280;46091;46.512;6.626;2023-11-19T19:44:48;97320.22;;;14.42;72.32
60228;BME280;46091;46.512;6.626;2023-11-19T19:46:52;97312.22;;;14.42;72.29
60228;BME280;46091;46.512;6.626;2023-11-19T19:48:55;97306.91;;;14.42;72.34
60228;BME280;46091;46.512;6.626;2023-11-19T19:50:58;97313.03;;;14.42;72.48
60228;BME280;46091;46.512;6.626;2023-11-19T19:53:01;97303.22;;;14.43;72.47
60228;BME280;46091;46.512;6.626;2023-11-19T19:55:07;97304.03;;;14.43;72.45
60228;BME280;46091;46.512;6.626;2023-11-19T19:57:11;97305.06;;;14.42;72.29
60228;BME280;46091;46.512;6.626;2023-11-19T19:59:13;97307.72;;;14.42;72.38
60228;BME280;46091;46.512;6.626;2023-11-19T20:01:16;97302.41;;;14.42;72.35
60228;BME280;46091;46.512;6.626;2023-11-19T20:03:20;97301.59;;;14.42;72.30
60228;BME280;46091;46.512;6.626;2023-11-19T20:05:23;97299.13;;;14.40;72.20
60228;BME280;46091;46.512;6.626;2023-11-19T20:07:26;97299.94;;;14.41;72.42
60228;BME280;46091;46.512;6.626;2023-11-19T20:09:29;97299.13;;;14.40;72.30
60228;BME280;46091;46.512;6.626;2023-11-19T20:11:35;97305.06;;;14.42;72.19
60228;BME280;46091;46.512;6.626;2023-11-19T20:13:37;97305.88;;;14.43;72.22
60228;BME280;46091;46.512;6.626;2023-11-19T20:15:40;97303.22;;;14.43;72.12
60228;BME280;46091;46.512;6.626;2023-11-19T20:17:43;97305.06;;;14.42;72.16
60228;BME280;46091;46.512;6.626;2023-11-19T20:19:48;97303.03;;;14.44;72.26
60228;BME280;46091;46.512;6.626;2023-11-19T20:21:51;97286.22;;;14.44;72.14
60228;BME280;46091;46.512;6.626;2023-11-19T20:23:54;97291.38;;;14.45;72.15
60228;BME280;46091;46.512;6.626;2023-11-19T20:25:56;97291.38;;;14.45;72.20
60228;BME280;46091;46.512;6.626;2023-11-19T20:27:59;97287.69;;;14.46;72.18
60228;BME280;46091;46.512;6.626;2023-11-19T20:30:03;97294.03;;;14.45;72.28
60228;BME280;46091;46.512;6.626;2023-11-19T20:32:07;97285.25;;;14.45;72.10
60228;BME280;46091;46.512;6.626;2023-11-19T20:34:10;97289.75;;;14.44;72.05
60228;BME280;46091;46.512;6.626;2023-11-19T20:36:14;97290.72;;;14.43;72.07
60228;BME280;46091;46.512;6.626;2023-11-19T20:38:17;97291.75;;;14.42;72.12
60228;BME280;46091;46.512;6.626;2023-11-19T20:40:19;97298.09;;;14.41;72.41